ペトロパブロフスク・カムチャツキー の空港の天気 - METARとTAF

ペトロパブロフスク・カムチャツキー空港 ( UHPP / PKC ) - ロシア ペトロパブロフスク・カムチャツキー
飛行場実況気象(Metar)
観測時間05/29 07:00 +11 (05/28 20:00 UTC)
風向・風速不定 1m/s
視程10km以上
天気現象
なし
気温9℃
湿度76%
気圧1005hPa
METARUHPP 282000Z VRB01MPS 9999 NSC 09/05 Q1005 R34L/CLRD70 NOSIG RMK QFE750/1000
過去の天気等 Google飛行場航空写真 Wunderground天気予報

過去48時間のMETAR

飛行場予報(TAF)
発表時間: 5/29 03:40 +11 (5/28 16:40 UTC)
予報対象時間: 29日5時 +11 ~ 30日11時 +11
風向・風速南 3m/s 瞬間風速 10m/s
視程10km以上
全天の4割程度の積乱雲 雲底高度 910m
全天の8割程度の雲 雲底高度 1,830m
29日5時 +11 ~ 30日8時 +11 に一時的に
風向・風速北 3m/s 瞬間風速 8m/s
視程3,100m
天気現象弱いしゅう雨 もや
全天の8割程度の雲 雲底高度 340m
全天を覆う積乱雲 雲底高度 460m
TAF UHPP 281640Z 2818/2924 18003G10MPS 9999 SCT030CB BKN060
TEMPO 2818/2921 35003G08MPS 3100 -SHRA BR BKN011 OVC015CB